TimeMST,TemperatureF,Dew PointF,Humidity,Sea Level PressureIn,VisibilityMPH,Wind Direction,Wind SpeedMPH,Gust SpeedMPH,PrecipitationIn,Events,Conditions,WindDirDegrees,DateUTC
12:53 AM,54.0,8.1,16,29.57,10.0,SSW,18.4,-,N/A,,Mostly Cloudy,200,2013-11-03 06:53:00
1:53 AM,52.0,9.0,18,29.56,10.0,South,12.7,-,N/A,,Mostly Cloudy,170,2013-11-03 07:53:00
1:53 AM,53.1,12.9,20,29.54,10.0,SSW,16.1,-,N/A,,Overcast,200,2013-11-03 08:53:00
2:53 AM,43.0,25.0,49,29.56,10.0,NNW,6.9,-,N/A,,Mostly Cloudy,330,2013-11-03 09:53:00
3:53 AM,46.0,24.1,42,29.54,10.0,NW,3.5,-,N/A,,Overcast,320,2013-11-03 10:53:00
4:53 AM,39.9,26.1,58,29.57,10.0,SSE,4.6,-,N/A,,Overcast,160,2013-11-03 11:53:00
5:53 AM,42.1,26.1,53,29.57,10.0,WSW,5.8,-,N/A,,Mostly Cloudy,250,2013-11-03 12:53:00
6:53 AM,37.9,25.0,60,29.59,10.0,South,3.5,-,N/A,,Mostly Cloudy,180,2013-11-03 13:53:00
7:53 AM,51.1,24.1,35,29.54,10.0,WSW,5.8,-,N/A,,Mostly Cloudy,250,2013-11-03 14:53:00
8:53 AM,55.9,23.0,28,29.54,10.0,NNW,6.9,-,N/A,,Mostly Cloudy,340,2013-11-03 15:53:00
9:53 AM,63.0,18.0,18,29.49,10.0,Calm,Calm,-,N/A,,Mostly Cloudy,0,2013-11-03 16:53:00
10:53 AM,64.9,17.1,16,29.47,10.0,NNW,6.9,-,N/A,,Scattered Clouds,330,2013-11-03 17:53:00
11:53 AM,66.0,19.0,17,29.44,10.0,East,8.1,-,N/A,,Scattered Clouds,80,2013-11-03 18:53:00
12:53 PM,64.9,14.0,14,29.42,10.0,NNE,3.5,-,N/A,,Scattered Clouds,30,2013-11-03 19:53:00
1:53 PM,66.9,15.1,14,29.40,10.0,East,6.9,-,N/A,,Scattered Clouds,80,2013-11-03 20:53:00
2:53 PM,64.0,15.1,15,29.45,10.0,East,17.3,21.9,N/A,,Scattered Clouds,80,2013-11-03 21:53:00
3:53 PM,57.9,15.1,19,29.47,10.0,East,10.4,-,N/A,,Scattered Clouds,100,2013-11-03 22:53:00
4:53 PM,55.0,18.0,23,29.50,10.0,East,10.4,-,N/A,,Mostly Cloudy,90,2013-11-03 23:53:00
5:53 PM,54.0,19.0,25,29.53,10.0,East,9.2,-,N/A,,Mostly Cloudy,80,2013-11-04 00:53:00
6:53 PM,50.0,25.0,38,29.57,10.0,NE,20.7,29.9,N/A,,Mostly Cloudy,40,2013-11-04 01:53:00
7:53 PM,44.1,27.0,51,29.58,10.0,North,12.7,-,N/A,,Mostly Cloudy,10,2013-11-04 02:53:00
8:42 PM,42.8,28.4,57,29.76,10.0,North,25.3,38.0,N/A,,Mostly Cloudy,10,2013-11-04 03:42:00
8:53 PM,41.0,27.0,57,29.68,10.0,North,23.0,31.1,N/A,,Mostly Cloudy,10,2013-11-04 03:53:00
8:58 PM,39.2,26.6,61,29.78,10.0,North,17.3,29.9,N/A,,Mostly Cloudy,10,2013-11-04 03:58:00
9:53 PM,37.0,27.0,67,29.70,10.0,NE,11.5,-,N/A,,Overcast,50,2013-11-04 04:53:00
10:53 PM,35.1,28.0,76,29.74,10.0,ENE,12.7,-,N/A,,Overcast,60,2013-11-04 05:53:00